CheckWX is a tool to help pilots better visualize weather data.  It is not intended as a substitute for an official pre-flight weather briefing.

15:16:01 UTC

KBAF TAF
Westfield-Barnes Regional Airport
Westfield/Springfield, Massachusetts, USA
KBAF 291740Z 2918/3018 18016KT P6SM BKN025 FM291900 19010G21KT P6SM SCT030 FM300200 18008KT P6SM VCSH OVC035 FM300700 19006KT P6SM OVC040 FM301000 22005KT P6SM OVC040 FM301100 25006KT P6SM OVC040 FM301400 29006KT P6SM BKN080

May-29@
18:00 UTC

May-29 @ 18:00 UTC

May-29@
19:00 UTC

May-29 @ 19:00 UTC

TAF KBAF 291740Z 2918/3018 18016KT P6SM BKN025

Expired

Wind
  • 180° at 16 KTS
Cloud Levels
  • Broken at 2,500' AGL

May-29@
19:00 UTC

May-29 @ 19:00 UTC

May-30@
02:00 UTC

May-30 @ 02:00 UTC

FM291900 19010G21KT P6SM SCT030

Expired

Wind
  • 190° at 10 KTS
  • {Gusting to 21 KTS
Cloud Levels
  • Scattered at 3,000' AGL

May-30@
02:00 UTC

May-30 @ 02:00 UTC

May-30@
07:00 UTC

May-30 @ 07:00 UTC

FM300200 18008KT P6SM VCSH OVC035

Expired

Wind
  • 180° at 8 KTS
Conditions
Area Showers
Cloud Levels
  • Overcast at 3,500' AGL

May-30@
07:00 UTC

May-30 @ 07:00 UTC

May-30@
10:00 UTC

May-30 @ 10:00 UTC

FM300700 19006KT P6SM OVC040

Expired

Wind
  • 190° at 6 KTS
Cloud Levels
  • Overcast at 4,000' AGL

May-30@
10:00 UTC

May-30 @ 10:00 UTC

May-30@
11:00 UTC

May-30 @ 11:00 UTC

FM301000 22005KT P6SM OVC040

Expired

Wind
  • 220° at 5 KTS
Cloud Levels
  • Overcast at 4,000' AGL

May-30@
11:00 UTC

May-30 @ 11:00 UTC

May-30@
14:00 UTC

May-30 @ 14:00 UTC

FM301100 25006KT P6SM OVC040

Expired

Wind
  • 250° at 6 KTS
Cloud Levels
  • Overcast at 4,000' AGL

May-30@
14:00 UTC

May-30 @ 14:00 UTC

May-30@
18:00 UTC

May-30 @ 18:00 UTC

FM301400 29006KT P6SM BKN080

From

From Standard forecast or significant change

Wind
  • 290° at 6 KTS
Cloud Levels
  • Broken at 8,000' AGL